sensor_id;sensor_type;location;lat;lon;timestamp;temperature;humidity
2112;DHT22;1062;52.538;13.400;2022-12-05T00:00:30;3.00;99.90
2112;DHT22;1062;52.538;13.400;2022-12-05T00:03:03;3.00;99.90
2112;DHT22;1062;52.538;13.400;2022-12-05T00:05:29;3.00;99.90
2112;DHT22;1062;52.538;13.400;2022-12-05T00:07:54;3.00;99.90
2112;DHT22;1062;52.538;13.400;2022-12-05T00:10:20;3.00;99.90
2112;DHT22;1062;52.538;13.400;2022-12-05T00:12:46;3.00;99.90
2112;DHT22;1062;52.538;13.400;2022-12-05T00:15:13;3.00;99.90
2112;DHT22;1062;52.538;13.400;2022-12-05T00:17:39;2.90;99.90
2112;DHT22;1062;52.538;13.400;2022-12-05T00:20:06;2.90;99.90
2112;DHT22;1062;52.538;13.400;2022-12-05T00:22:36;2.90;99.90
2112;DHT22;1062;52.538;13.400;2022-12-05T00:25:04;3.00;99.90
2112;DHT22;1062;52.538;13.400;2022-12-05T00:27:33;3.00;99.90
2112;DHT22;1062;52.538;13.400;2022-12-05T00:30:02;3.00;99.90
2112;DHT22;1062;52.538;13.400;2022-12-05T00:32:31;3.00;99.90
2112;DHT22;1062;52.538;13.400;2022-12-05T00:35:00;3.00;99.90
2112;DHT22;1062;52.538;13.400;2022-12-05T00:37:26;3.00;99.90
2112;DHT22;1062;52.538;13.400;2022-12-05T00:39:51;3.00;99.90
2112;DHT22;1062;52.538;13.400;2022-12-05T00:42:17;3.00;99.90
2112;DHT22;1062;52.538;13.400;2022-12-05T00:44:43;3.00;99.90
2112;DHT22;1062;52.538;13.400;2022-12-05T00:47:08;3.00;99.90
2112;DHT22;1062;52.538;13.400;2022-12-05T00:49:34;3.10;99.90
2112;DHT22;1062;52.538;13.400;2022-12-05T00:51:59;3.10;99.90
2112;DHT22;1062;52.538;13.400;2022-12-05T00:54:25;3.10;99.90
2112;DHT22;1062;52.538;13.400;2022-12-05T00:56:50;3.00;99.90
2112;DHT22;1062;52.538;13.400;2022-12-05T00:59:21;3.00;99.90
2112;DHT22;1062;52.538;13.400;2022-12-05T01:01:48;3.00;99.90
2112;DHT22;1062;52.538;13.400;2022-12-05T01:04:22;3.00;99.90
2112;DHT22;1062;52.538;13.400;2022-12-05T01:06:49;3.00;99.90
2112;DHT22;1062;52.538;13.400;2022-12-05T01:09:19;3.00;99.90
2112;DHT22;1062;52.538;13.400;2022-12-05T01:11:45;3.00;99.90
2112;DHT22;1062;52.538;13.400;2022-12-05T01:14:12;3.10;99.90
2112;DHT22;1062;52.538;13.400;2022-12-05T01:16:40;3.10;99.90
2112;DHT22;1062;52.538;13.400;2022-12-05T01:19:13;3.10;99.90
2112;DHT22;1062;52.538;13.400;2022-12-05T01:21:39;3.10;99.90
2112;DHT22;1062;52.538;13.400;2022-12-05T01:24:05;3.10;99.90
2112;DHT22;1062;52.538;13.400;2022-12-05T01:26:31;3.10;99.90
2112;DHT22;1062;52.538;13.400;2022-12-05T01:28:57;3.10;99.90
2112;DHT22;1062;52.538;13.400;2022-12-05T01:31:25;3.10;99.90
2112;DHT22;1062;52.538;13.400;2022-12-05T01:33:52;3.10;99.90
2112;DHT22;1062;52.538;13.400;2022-12-05T01:36:18;3.10;99.90
2112;DHT22;1062;52.538;13.400;2022-12-05T01:38:44;3.10;99.90
2112;DHT22;1062;52.538;13.400;2022-12-05T01:41:16;3.10;99.90
2112;DHT22;1062;52.538;13.400;2022-12-05T01:46:18;3.10;99.90
2112;DHT22;1062;52.538;13.400;2022-12-05T01:48:44;3.10;99.90
2112;DHT22;1062;52.538;13.400;2022-12-05T01:51:10;3.10;99.90
2112;DHT22;1062;52.538;13.400;2022-12-05T01:53:36;3.10;99.90
2112;DHT22;1062;52.538;13.400;2022-12-05T01:56:02;3.10;99.90
2112;DHT22;1062;52.538;13.400;2022-12-05T01:58:32;3.10;99.90
2112;DHT22;1062;52.538;13.400;2022-12-05T02:01:00;3.10;99.90
2112;DHT22;1062;52.538;13.400;2022-12-05T02:03:26;3.10;99.90
2112;DHT22;1062;52.538;13.400;2022-12-05T02:05:54;3.10;99.90
2112;DHT22;1062;52.538;13.400;2022-12-05T02:08:21;3.10;99.90
2112;DHT22;1062;52.538;13.400;2022-12-05T02:10:52;3.10;99.90
2112;DHT22;1062;52.538;13.400;2022-12-05T02:22:09;3.10;99.90
2112;DHT22;1062;52.538;13.400;2022-12-05T02:30:17;3.10;99.90
2112;DHT22;1062;52.538;13.400;2022-12-05T02:32:59;3.10;99.90
2112;DHT22;1062;52.538;13.400;2022-12-05T02:36:00;3.10;99.90
2112;DHT22;1062;52.538;13.400;2022-12-05T02:41:27;3.10;99.90
2112;DHT22;1062;52.538;13.400;2022-12-05T02:44:13;3.10;99.90
2112;DHT22;1062;52.538;13.400;2022-12-05T02:46:42;3.10;99.90
2112;DHT22;1062;52.538;13.400;2022-12-05T02:49:12;3.10;99.90
2112;DHT22;1062;52.538;13.400;2022-12-05T02:51:43;3.00;99.90
2112;DHT22;1062;52.538;13.400;2022-12-05T02:54:13;3.10;99.90
2112;DHT22;1062;52.538;13.400;2022-12-05T02:56:43;3.10;99.90
2112;DHT22;1062;52.538;13.400;2022-12-05T02:59:10;3.10;99.90
2112;DHT22;1062;52.538;13.400;2022-12-05T03:01:36;3.10;99.90
2112;DHT22;1062;52.538;13.400;2022-12-05T03:04:03;3.10;99.90
2112;DHT22;1062;52.538;13.400;2022-12-05T03:07:25;3.10;99.90
2112;DHT22;1062;52.538;13.400;2022-12-05T03:12:19;3.10;99.90
2112;DHT22;1062;52.538;13.400;2022-12-05T03:14:50;3.10;99.90
2112;DHT22;1062;52.538;13.400;2022-12-05T03:17:21;3.10;99.90
2112;DHT22;1062;52.538;13.400;2022-12-05T03:20:04;3.10;99.90
2112;DHT22;1062;52.538;13.400;2022-12-05T03:22:36;3.10;99.90
2112;DHT22;1062;52.538;13.400;2022-12-05T03:25:03;3.10;99.90
2112;DHT22;1062;52.538;13.400;2022-12-05T03:27:43;3.00;99.90
2112;DHT22;1062;52.538;13.400;2022-12-05T03:30:16;3.00;99.90
2112;DHT22;1062;52.538;13.400;2022-12-05T03:33:10;3.10;99.90
2112;DHT22;1062;52.538;13.400;2022-12-05T03:36:11;3.10;99.90
2112;DHT22;1062;52.538;13.400;2022-12-05T03:38:50;3.10;99.90
2112;DHT22;1062;52.538;13.400;2022-12-05T03:41:30;3.10;99.90
2112;DHT22;1062;52.538;13.400;2022-12-05T03:44:03;3.10;99.90
2112;DHT22;1062;52.538;13.400;2022-12-05T03:47:05;3.10;99.90
2112;DHT22;1062;52.538;13.400;2022-12-05T03:49:41;3.10;99.90
2112;DHT22;1062;52.538;13.400;2022-12-05T03:52:27;3.10;99.90
2112;DHT22;1062;52.538;13.400;2022-12-05T03:54:56;3.10;99.90
2112;DHT22;1062;52.538;13.400;2022-12-05T03:57:36;3.10;99.90
2112;DHT22;1062;52.538;13.400;2022-12-05T04:00:13;3.10;99.90
2112;DHT22;1062;52.538;13.400;2022-12-05T04:02:54;3.00;99.90
2112;DHT22;1062;52.538;13.400;2022-12-05T04:05:34;3.00;99.90
2112;DHT22;1062;52.538;13.400;2022-12-05T04:08:05;3.00;99.90
2112;DHT22;1062;52.538;13.400;2022-12-05T04:10:33;3.00;99.90
2112;DHT22;1062;52.538;13.400;2022-12-05T04:13:21;3.00;99.90
2112;DHT22;1062;52.538;13.400;2022-12-05T04:15:53;3.10;99.90
2112;DHT22;1062;52.538;13.400;2022-12-05T04:21:27;3.10;99.90
2112;DHT22;1062;52.538;13.400;2022-12-05T04:24:06;3.00;99.90
2112;DHT22;1062;52.538;13.400;2022-12-05T04:27:00;3.00;99.90
2112;DHT22;1062;52.538;13.400;2022-12-05T04:29:33;3.00;99.90
2112;DHT22;1062;52.538;13.400;2022-12-05T04:32:06;3.00;99.90
2112;DHT22;1062;52.538;13.400;2022-12-05T04:34:34;3.00;99.90
2112;DHT22;1062;52.538;13.400;2022-12-05T04:37:11;3.00;99.90
2112;DHT22;1062;52.538;13.400;2022-12-05T04:39:53;3.00;99.90
2112;DHT22;1062;52.538;13.400;2022-12-05T04:42:22;3.00;99.90
2112;DHT22;1062;52.538;13.400;2022-12-05T04:44:52;3.00;99.90
2112;DHT22;1062;52.538;13.400;2022-12-05T04:47:22;3.00;99.90
2112;DHT22;1062;52.538;13.400;2022-12-05T04:49:51;3.00;99.90
2112;DHT22;1062;52.538;13.400;2022-12-05T04:52:17;3.00;99.90
2112;DHT22;1062;52.538;13.400;2022-12-05T04:54:51;3.00;99.90
2112;DHT22;1062;52.538;13.400;2022-12-05T05:00:14;3.00;99.90
2112;DHT22;1062;52.538;13.400;2022-12-05T05:02:46;3.00;99.90
2112;DHT22;1062;52.538;13.400;2022-12-05T05:05:14;3.00;99.90
2112;DHT22;1062;52.538;13.400;2022-12-05T05:07:46;2.90;99.90
2112;DHT22;1062;52.538;13.400;2022-12-05T05:10:21;3.00;99.90
2112;DHT22;1062;52.538;13.400;2022-12-05T05:12:49;3.00;99.90
2112;DHT22;1062;52.538;13.400;2022-12-05T05:15:15;3.00;99.90
2112;DHT22;1062;52.538;13.400;2022-12-05T05:17:41;3.00;99.90
2112;DHT22;1062;52.538;13.400;2022-12-05T05:20:07;2.90;99.90
2112;DHT22;1062;52.538;13.400;2022-12-05T05:22:52;3.00;99.90
2112;DHT22;1062;52.538;13.400;2022-12-05T05:25:19;2.90;99.90
2112;DHT22;1062;52.538;13.400;2022-12-05T05:27:49;2.90;99.90
2112;DHT22;1062;52.538;13.400;2022-12-05T05:30:16;3.00;99.90
2112;DHT22;1062;52.538;13.400;2022-12-05T05:32:41;3.00;99.90
2112;DHT22;1062;52.538;13.400;2022-12-05T05:35:07;2.90;99.90
2112;DHT22;1062;52.538;13.400;2022-12-05T05:37:33;3.00;99.90
2112;DHT22;1062;52.538;13.400;2022-12-05T05:39:58;2.90;99.90
2112;DHT22;1062;52.538;13.400;2022-12-05T05:42:24;3.00;99.90
2112;DHT22;1062;52.538;13.400;2022-12-05T05:44:50;3.00;99.90
2112;DHT22;1062;52.538;13.400;2022-12-05T05:47:15;3.00;99.90
2112;DHT22;1062;52.538;13.400;2022-12-05T05:49:41;2.90;99.90
2112;DHT22;1062;52.538;13.400;2022-12-05T05:52:06;2.90;99.90
2112;DHT22;1062;52.538;13.400;2022-12-05T05:54:32;3.00;99.90
2112;DHT22;1062;52.538;13.400;2022-12-05T05:56:57;3.00;99.90
2112;DHT22;1062;52.538;13.400;2022-12-05T05:59:23;3.00;99.90
2112;DHT22;1062;52.538;13.400;2022-12-05T06:01:48;2.90;99.90
2112;DHT22;1062;52.538;13.400;2022-12-05T06:04:14;3.00;99.90
2112;DHT22;1062;52.538;13.400;2022-12-05T06:06:39;3.00;99.90
2112;DHT22;1062;52.538;13.400;2022-12-05T06:09:06;3.00;99.90
2112;DHT22;1062;52.538;13.400;2022-12-05T06:11:32;3.00;99.90
2112;DHT22;1062;52.538;13.400;2022-12-05T06:13:59;3.00;99.90
2112;DHT22;1062;52.538;13.400;2022-12-05T06:16:29;3.00;99.90
2112;DHT22;1062;52.538;13.400;2022-12-05T06:18:55;3.10;99.90
2112;DHT22;1062;52.538;13.400;2022-12-05T06:21:21;3.00;99.90
2112;DHT22;1062;52.538;13.400;2022-12-05T06:23:48;3.00;99.90
2112;DHT22;1062;52.538;13.400;2022-12-05T06:26:16;3.00;99.90
2112;DHT22;1062;52.538;13.400;2022-12-05T06:28:43;3.00;99.90
2112;DHT22;1062;52.538;13.400;2022-12-05T06:31:11;3.00;99.90
2112;DHT22;1062;52.538;13.400;2022-12-05T06:33:37;3.00;99.90
2112;DHT22;1062;52.538;13.400;2022-12-05T06:36:09;3.00;99.90
2112;DHT22;1062;52.538;13.400;2022-12-05T06:38:34;3.00;99.90
2112;DHT22;1062;52.538;13.400;2022-12-05T06:41:07;3.00;99.90
2112;DHT22;1062;52.538;13.400;2022-12-05T06:43:32;3.00;99.90
2112;DHT22;1062;52.538;13.400;2022-12-05T06:45:58;3.00;99.90
2112;DHT22;1062;52.538;13.400;2022-12-05T06:48:24;3.00;99.90
2112;DHT22;1062;52.538;13.400;2022-12-05T06:50:51;3.00;99.90
2112;DHT22;1062;52.538;13.400;2022-12-05T06:53:18;3.00;99.90
2112;DHT22;1062;52.538;13.400;2022-12-05T06:55:43;3.10;99.90
2112;DHT22;1062;52.538;13.400;2022-12-05T06:58:09;3.10;99.90
2112;DHT22;1062;52.538;13.400;2022-12-05T07:00:35;3.10;99.90
2112;DHT22;1062;52.538;13.400;2022-12-05T07:03:22;3.10;99.90
2112;DHT22;1062;52.538;13.400;2022-12-05T07:05:47;3.10;99.90
2112;DHT22;1062;52.538;13.400;2022-12-05T07:08:13;3.10;99.90
2112;DHT22;1062;52.538;13.400;2022-12-05T07:10:38;3.10;99.90
2112;DHT22;1062;52.538;13.400;2022-12-05T07:13:05;3.10;99.90
2112;DHT22;1062;52.538;13.400;2022-12-05T07:15:31;3.20;99.90
2112;DHT22;1062;52.538;13.400;2022-12-05T07:17:56;3.10;99.90
2112;DHT22;1062;52.538;13.400;2022-12-05T07:20:22;3.10;99.90
2112;DHT22;1062;52.538;13.400;2022-12-05T07:22:47;3.20;99.90
2112;DHT22;1062;52.538;13.400;2022-12-05T07:25:13;3.10;99.90
2112;DHT22;1062;52.538;13.400;2022-12-05T07:27:38;3.10;99.90
2112;DHT22;1062;52.538;13.400;2022-12-05T07:30:05;3.20;99.90
2112;DHT22;1062;52.538;13.400;2022-12-05T07:32:32;3.20;99.90
2112;DHT22;1062;52.538;13.400;2022-12-05T07:34:58;3.20;99.90
2112;DHT22;1062;52.538;13.400;2022-12-05T07:37:23;3.20;99.90
2112;DHT22;1062;52.538;13.400;2022-12-05T07:39:51;3.20;99.90
2112;DHT22;1062;52.538;13.400;2022-12-05T07:42:17;3.20;99.90
2112;DHT22;1062;52.538;13.400;2022-12-05T07:44:42;3.20;99.90
2112;DHT22;1062;52.538;13.400;2022-12-05T07:47:08;3.20;99.90
2112;DHT22;1062;52.538;13.400;2022-12-05T07:49:33;3.20;99.90
2112;DHT22;1062;52.538;13.400;2022-12-05T07:51:59;3.20;99.90
2112;DHT22;1062;52.538;13.400;2022-12-05T07:54:24;3.20;99.90
2112;DHT22;1062;52.538;13.400;2022-12-05T07:56:50;3.10;99.90
2112;DHT22;1062;52.538;13.400;2022-12-05T07:59:16;3.10;99.90
2112;DHT22;1062;52.538;13.400;2022-12-05T08:01:41;3.20;99.90
2112;DHT22;1062;52.538;13.400;2022-12-05T08:04:07;3.20;99.90
2112;DHT22;1062;52.538;13.400;2022-12-05T08:06:33;3.20;99.90
2112;DHT22;1062;52.538;13.400;2022-12-05T08:08:59;3.20;99.90
2112;DHT22;1062;52.538;13.400;2022-12-05T08:11:32;3.20;99.90
2112;DHT22;1062;52.538;13.400;2022-12-05T08:14:01;3.20;99.90
2112;DHT22;1062;52.538;13.400;2022-12-05T08:16:29;3.10;99.90
2112;DHT22;1062;52.538;13.400;2022-12-05T08:19:03;3.20;99.90
2112;DHT22;1062;52.538;13.400;2022-12-05T08:21:29;3.20;99.90
2112;DHT22;1062;52.538;13.400;2022-12-05T08:23:54;3.20;99.90
2112;DHT22;1062;52.538;13.400;2022-12-05T08:26:28;3.20;99.90
2112;DHT22;1062;52.538;13.400;2022-12-05T08:29:00;3.20;99.90
2112;DHT22;1062;52.538;13.400;2022-12-05T08:31:27;3.20;99.90
2112;DHT22;1062;52.538;13.400;2022-12-05T08:33:56;3.20;99.90
2112;DHT22;1062;52.538;13.400;2022-12-05T08:36:22;3.20;99.90
2112;DHT22;1062;52.538;13.400;2022-12-05T08:38:48;3.20;99.90
2112;DHT22;1062;52.538;13.400;2022-12-05T08:41:16;3.20;99.90
2112;DHT22;1062;52.538;13.400;2022-12-05T08:43:42;3.20;99.90
2112;DHT22;1062;52.538;13.400;2022-12-05T08:46:09;3.30;99.90
2112;DHT22;1062;52.538;13.400;2022-12-05T08:48:35;3.30;99.90
2112;DHT22;1062;52.538;13.400;2022-12-05T08:51:09;3.20;99.90
2112;DHT22;1062;52.538;13.400;2022-12-05T08:53:38;3.20;99.90
2112;DHT22;1062;52.538;13.400;2022-12-05T08:56:05;3.20;99.90
2112;DHT22;1062;52.538;13.400;2022-12-05T08:58:31;3.20;99.90
2112;DHT22;1062;52.538;13.400;2022-12-05T09:01:09;3.30;99.90
2112;DHT22;1062;52.538;13.400;2022-12-05T09:03:36;3.30;99.90
2112;DHT22;1062;52.538;13.400;2022-12-05T09:06:06;3.30;99.90
2112;DHT22;1062;52.538;13.400;2022-12-05T09:08:32;3.30;99.90
2112;DHT22;1062;52.538;13.400;2022-12-05T09:10:58;3.40;99.90
2112;DHT22;1062;52.538;13.400;2022-12-05T09:13:24;3.40;99.90
2112;DHT22;1062;52.538;13.400;2022-12-05T09:15:49;3.30;99.90
2112;DHT22;1062;52.538;13.400;2022-12-05T09:18:15;3.30;99.90
2112;DHT22;1062;52.538;13.400;2022-12-05T09:20:40;3.30;99.90
2112;DHT22;1062;52.538;13.400;2022-12-05T09:23:06;3.30;99.90
2112;DHT22;1062;52.538;13.400;2022-12-05T09:25:32;3.30;99.90
2112;DHT22;1062;52.538;13.400;2022-12-05T09:27:57;3.30;99.90
2112;DHT22;1062;52.538;13.400;2022-12-05T09:30:23;3.30;99.90
2112;DHT22;1062;52.538;13.400;2022-12-05T09:32:48;3.30;99.90
2112;DHT22;1062;52.538;13.400;2022-12-05T09:35:14;3.30;99.90
2112;DHT22;1062;52.538;13.400;2022-12-05T09:37:39;3.30;99.90
2112;DHT22;1062;52.538;13.400;2022-12-05T09:40:06;3.30;99.90
2112;DHT22;1062;52.538;13.400;2022-12-05T09:42:37;3.30;99.90
2112;DHT22;1062;52.538;13.400;2022-12-05T09:45:22;3.30;99.90
2112;DHT22;1062;52.538;13.400;2022-12-05T09:48:10;3.40;99.90
2112;DHT22;1062;52.538;13.400;2022-12-05T09:50:49;3.40;99.90
2112;DHT22;1062;52.538;13.400;2022-12-05T09:53:25;3.40;99.90
2112;DHT22;1062;52.538;13.400;2022-12-05T09:55:56;3.40;99.90
2112;DHT22;1062;52.538;13.400;2022-12-05T09:58:49;3.40;99.90
2112;DHT22;1062;52.538;13.400;2022-12-05T10:01:35;3.40;99.90
2112;DHT22;1062;52.538;13.400;2022-12-05T10:09:49;3.30;99.90
2112;DHT22;1062;52.538;13.400;2022-12-05T10:12:31;3.40;99.90
2112;DHT22;1062;52.538;13.400;2022-12-05T10:17:37;3.40;99.90
2112;DHT22;1062;52.538;13.400;2022-12-05T10:20:18;3.40;99.90
2112;DHT22;1062;52.538;13.400;2022-12-05T10:22:58;3.40;99.90
2112;DHT22;1062;52.538;13.400;2022-12-05T10:25:26;3.50;99.90
2112;DHT22;1062;52.538;13.400;2022-12-05T10:28:02;3.40;99.90
2112;DHT22;1062;52.538;13.400;2022-12-05T10:30:30;3.40;99.90
2112;DHT22;1062;52.538;13.400;2022-12-05T10:32:59;3.50;99.90
2112;DHT22;1062;52.538;13.400;2022-12-05T10:35:36;3.50;99.90
2112;DHT22;1062;52.538;13.400;2022-12-05T10:38:05;3.50;99.90
2112;DHT22;1062;52.538;13.400;2022-12-05T10:40:37;3.50;99.90
2112;DHT22;1062;52.538;13.400;2022-12-05T10:43:05;3.50;99.90
2112;DHT22;1062;52.538;13.400;2022-12-05T10:45:34;3.50;99.90
2112;DHT22;1062;52.538;13.400;2022-12-05T10:48:04;3.40;99.90
2112;DHT22;1062;52.538;13.400;2022-12-05T10:50:35;3.50;99.90
2112;DHT22;1062;52.538;13.400;2022-12-05T10:53:04;3.50;99.90
2112;DHT22;1062;52.538;13.400;2022-12-05T10:55:39;3.50;99.90
2112;DHT22;1062;52.538;13.400;2022-12-05T10:58:25;3.50;99.90
2112;DHT22;1062;52.538;13.400;2022-12-05T11:00:56;3.50;99.90
2112;DHT22;1062;52.538;13.400;2022-12-05T11:03:31;3.50;99.90
2112;DHT22;1062;52.538;13.400;2022-12-05T11:06:02;3.40;99.90
2112;DHT22;1062;52.538;13.400;2022-12-05T11:08:38;3.50;99.90
2112;DHT22;1062;52.538;13.400;2022-12-05T11:11:06;3.50;99.90
2112;DHT22;1062;52.538;13.400;2022-12-05T11:13:34;3.50;99.90
2112;DHT22;1062;52.538;13.400;2022-12-05T11:16:00;3.50;99.90
2112;DHT22;1062;52.538;13.400;2022-12-05T11:20:54;3.60;99.90
2112;DHT22;1062;52.538;13.400;2022-12-05T11:23:28;3.70;99.90
2112;DHT22;1062;52.538;13.400;2022-12-05T11:25:56;3.60;99.90
2112;DHT22;1062;52.538;13.400;2022-12-05T11:28:29;3.70;99.90
2112;DHT22;1062;52.538;13.400;2022-12-05T11:33:22;3.70;99.90
2112;DHT22;1062;52.538;13.400;2022-12-05T11:35:50;3.80;99.90
2112;DHT22;1062;52.538;13.400;2022-12-05T11:38:18;3.70;99.90
2112;DHT22;1062;52.538;13.400;2022-12-05T11:54:34;3.70;99.90
2112;DHT22;1062;52.538;13.400;2022-12-05T12:00:23;3.80;99.90
2112;DHT22;1062;52.538;13.400;2022-12-05T12:06:06;3.80;99.90
2112;DHT22;1062;52.538;13.400;2022-12-05T12:27:51;4.00;99.90
2112;DHT22;1062;52.538;13.400;2022-12-05T12:30:29;3.90;99.90
2112;DHT22;1062;52.538;13.400;2022-12-05T12:33:09;3.80;99.90
2112;DHT22;1062;52.538;13.400;2022-12-05T12:38:31;3.90;99.90
2112;DHT22;1062;52.538;13.400;2022-12-05T12:41:43;3.90;99.90
2112;DHT22;1062;52.538;13.400;2022-12-05T12:47:05;3.90;99.90
2112;DHT22;1062;52.538;13.400;2022-12-05T12:52:13;3.90;99.90
2112;DHT22;1062;52.538;13.400;2022-12-05T13:03:21;3.90;99.90
2112;DHT22;1062;52.538;13.400;2022-12-05T13:05:53;3.90;99.90
2112;DHT22;1062;52.538;13.400;2022-12-05T13:08:47;3.80;99.90
2112;DHT22;1062;52.538;13.400;2022-12-05T13:11:16;3.90;99.90
2112;DHT22;1062;52.538;13.400;2022-12-05T13:13:46;3.90;99.90
2112;DHT22;1062;52.538;13.400;2022-12-05T13:16:22;3.80;99.90
2112;DHT22;1062;52.538;13.400;2022-12-05T13:18:48;3.90;99.90
2112;DHT22;1062;52.538;13.400;2022-12-05T13:21:14;3.90;99.90
2112;DHT22;1062;52.538;13.400;2022-12-05T13:23:45;4.00;99.90
2112;DHT22;1062;52.538;13.400;2022-12-05T13:26:12;3.90;99.90
2112;DHT22;1062;52.538;13.400;2022-12-05T13:28:46;4.00;99.90
2112;DHT22;1062;52.538;13.400;2022-12-05T13:31:12;4.00;99.90
2112;DHT22;1062;52.538;13.400;2022-12-05T13:33:42;4.00;99.90
2112;DHT22;1062;52.538;13.400;2022-12-05T13:36:14;4.00;99.90
2112;DHT22;1062;52.538;13.400;2022-12-05T13:39:02;4.00;99.90
2112;DHT22;1062;52.538;13.400;2022-12-05T13:41:50;4.00;99.90
2112;DHT22;1062;52.538;13.400;2022-12-05T13:51:01;4.10;99.90
2112;DHT22;1062;52.538;13.400;2022-12-05T13:53:05;4.10;99.90
2112;DHT22;1062;52.538;13.400;2022-12-05T13:55:39;4.20;99.90
2112;DHT22;1062;52.538;13.400;2022-12-05T14:00:43;4.10;99.90
2112;DHT22;1062;52.538;13.400;2022-12-05T14:05:56;4.10;99.90
2112;DHT22;1062;52.538;13.400;2022-12-05T14:26:47;4.20;99.90
2112;DHT22;1062;52.538;13.400;2022-12-05T14:32:28;4.20;99.90
2112;DHT22;1062;52.538;13.400;2022-12-05T14:35:00;4.30;99.90
2112;DHT22;1062;52.538;13.400;2022-12-05T14:37:33;4.30;99.90
2112;DHT22;1062;52.538;13.400;2022-12-05T14:40:03;4.20;99.90
2112;DHT22;1062;52.538;13.400;2022-12-05T14:43:01;4.30;99.90
2112;DHT22;1062;52.538;13.400;2022-12-05T14:47:57;4.30;99.90
2112;DHT22;1062;52.538;13.400;2022-12-05T15:01:02;4.40;99.90
2112;DHT22;1062;52.538;13.400;2022-12-05T15:03:37;4.40;99.90
2112;DHT22;1062;52.538;13.400;2022-12-05T15:06:06;4.20;99.90
2112;DHT22;1062;52.538;13.400;2022-12-05T15:08:47;4.30;99.90
2112;DHT22;1062;52.538;13.400;2022-12-05T15:11:17;4.40;99.90
2112;DHT22;1062;52.538;13.400;2022-12-05T15:14:00;4.30;99.90
2112;DHT22;1062;52.538;13.400;2022-12-05T15:16:30;4.30;99.90
2112;DHT22;1062;52.538;13.400;2022-12-05T15:19:05;4.30;99.90
2112;DHT22;1062;52.538;13.400;2022-12-05T15:21:36;4.50;99.90
2112;DHT22;1062;52.538;13.400;2022-12-05T15:24:14;4.50;99.90
2112;DHT22;1062;52.538;13.400;2022-12-05T15:26:43;4.40;99.90
2112;DHT22;1062;52.538;13.400;2022-12-05T15:29:14;4.50;99.90
2112;DHT22;1062;52.538;13.400;2022-12-05T15:31:47;4.50;99.90
2112;DHT22;1062;52.538;13.400;2022-12-05T15:42:45;4.30;99.90
2112;DHT22;1062;52.538;13.400;2022-12-05T15:47:37;4.30;99.90
2112;DHT22;1062;52.538;13.400;2022-12-05T15:50:04;4.40;99.90
2112;DHT22;1062;52.538;13.400;2022-12-05T15:52:35;4.40;99.90
2112;DHT22;1062;52.538;13.400;2022-12-05T15:55:07;4.40;99.90
2112;DHT22;1062;52.538;13.400;2022-12-05T15:57:42;4.40;99.90
2112;DHT22;1062;52.538;13.400;2022-12-05T16:00:16;4.40;99.90
2112;DHT22;1062;52.538;13.400;2022-12-05T16:02:57;4.40;99.90
2112;DHT22;1062;52.538;13.400;2022-12-05T16:07:59;4.40;99.90
2112;DHT22;1062;52.538;13.400;2022-12-05T16:10:25;4.40;99.90
2112;DHT22;1062;52.538;13.400;2022-12-05T16:12:52;4.30;99.90
2112;DHT22;1062;52.538;13.400;2022-12-05T16:15:24;4.30;99.90
2112;DHT22;1062;52.538;13.400;2022-12-05T16:17:56;4.40;99.90
2112;DHT22;1062;52.538;13.400;2022-12-05T16:20:43;4.40;99.90
2112;DHT22;1062;52.538;13.400;2022-12-05T16:23:27;4.40;99.90
2112;DHT22;1062;52.538;13.400;2022-12-05T16:28:37;4.30;99.90
2112;DHT22;1062;52.538;13.400;2022-12-05T16:31:04;4.30;99.90
2112;DHT22;1062;52.538;13.400;2022-12-05T16:33:30;4.40;99.90
2112;DHT22;1062;52.538;13.400;2022-12-05T16:36:10;4.40;99.90
2112;DHT22;1062;52.538;13.400;2022-12-05T16:38:37;4.40;99.90
2112;DHT22;1062;52.538;13.400;2022-12-05T16:41:05;4.40;99.90
2112;DHT22;1062;52.538;13.400;2022-12-05T16:48:43;4.50;99.90
2112;DHT22;1062;52.538;13.400;2022-12-05T16:53:42;4.50;99.90
2112;DHT22;1062;52.538;13.400;2022-12-05T16:56:13;4.50;99.90
2112;DHT22;1062;52.538;13.400;2022-12-05T16:58:39;4.50;99.90
2112;DHT22;1062;52.538;13.400;2022-12-05T17:01:06;4.60;99.90
2112;DHT22;1062;52.538;13.400;2022-12-05T17:03:33;4.50;99.90
2112;DHT22;1062;52.538;13.400;2022-12-05T17:05:59;4.50;99.90
2112;DHT22;1062;52.538;13.400;2022-12-05T17:08:25;4.50;99.90
2112;DHT22;1062;52.538;13.400;2022-12-05T17:10:52;4.50;99.90
2112;DHT22;1062;52.538;13.400;2022-12-05T17:13:18;4.50;99.90
2112;DHT22;1062;52.538;13.400;2022-12-05T17:15:44;4.50;99.90
2112;DHT22;1062;52.538;13.400;2022-12-05T17:18:15;4.50;99.90
2112;DHT22;1062;52.538;13.400;2022-12-05T17:20:43;4.50;99.90
2112;DHT22;1062;52.538;13.400;2022-12-05T17:23:12;4.50;99.90
2112;DHT22;1062;52.538;13.400;2022-12-05T17:25:40;4.60;99.90
2112;DHT22;1062;52.538;13.400;2022-12-05T17:28:06;4.60;99.90
2112;DHT22;1062;52.538;13.400;2022-12-05T17:30:31;4.60;99.90
2112;DHT22;1062;52.538;13.400;2022-12-05T17:32:58;4.60;99.90
2112;DHT22;1062;52.538;13.400;2022-12-05T17:35:27;4.70;99.90
2112;DHT22;1062;52.538;13.400;2022-12-05T17:37:53;4.70;99.90
2112;DHT22;1062;52.538;13.400;2022-12-05T17:40:19;4.70;99.90
2112;DHT22;1062;52.538;13.400;2022-12-05T17:42:44;4.70;99.90
2112;DHT22;1062;52.538;13.400;2022-12-05T17:45:13;4.70;99.90
2112;DHT22;1062;52.538;13.400;2022-12-05T17:47:39;4.60;99.90
2112;DHT22;1062;52.538;13.400;2022-12-05T17:50:05;4.70;99.90
2112;DHT22;1062;52.538;13.400;2022-12-05T17:52:32;4.70;99.90
2112;DHT22;1062;52.538;13.400;2022-12-05T17:54:58;4.70;99.90
2112;DHT22;1062;52.538;13.400;2022-12-05T17:57:24;4.70;99.90
2112;DHT22;1062;52.538;13.400;2022-12-05T17:59:49;4.70;99.90
2112;DHT22;1062;52.538;13.400;2022-12-05T18:02:15;4.70;99.90
2112;DHT22;1062;52.538;13.400;2022-12-05T18:04:44;4.80;99.90
2112;DHT22;1062;52.538;13.400;2022-12-05T18:07:10;4.80;99.90
2112;DHT22;1062;52.538;13.400;2022-12-05T18:09:36;4.80;99.90
2112;DHT22;1062;52.538;13.400;2022-12-05T18:12:02;4.70;99.90
2112;DHT22;1062;52.538;13.400;2022-12-05T18:14:27;4.80;99.90
2112;DHT22;1062;52.538;13.400;2022-12-05T18:16:53;4.80;99.90
2112;DHT22;1062;52.538;13.400;2022-12-05T18:19:19;4.80;99.90
2112;DHT22;1062;52.538;13.400;2022-12-05T18:21:44;4.80;99.90
2112;DHT22;1062;52.538;13.400;2022-12-05T18:24:10;4.80;99.90
2112;DHT22;1062;52.538;13.400;2022-12-05T18:26:36;4.80;99.90
2112;DHT22;1062;52.538;13.400;2022-12-05T18:29:01;4.80;99.90
2112;DHT22;1062;52.538;13.400;2022-12-05T18:31:27;4.80;99.90
2112;DHT22;1062;52.538;13.400;2022-12-05T18:33:55;4.80;99.90
2112;DHT22;1062;52.538;13.400;2022-12-05T18:36:20;4.80;99.90
2112;DHT22;1062;52.538;13.400;2022-12-05T18:38:54;4.80;99.90
2112;DHT22;1062;52.538;13.400;2022-12-05T18:41:21;4.80;99.90
2112;DHT22;1062;52.538;13.400;2022-12-05T18:43:51;4.80;99.90
2112;DHT22;1062;52.538;13.400;2022-12-05T18:46:18;4.80;99.90
2112;DHT22;1062;52.538;13.400;2022-12-05T18:48:43;4.80;99.90
2112;DHT22;1062;52.538;13.400;2022-12-05T18:51:12;4.80;99.90
2112;DHT22;1062;52.538;13.400;2022-12-05T18:53:38;4.80;99.90
2112;DHT22;1062;52.538;13.400;2022-12-05T18:56:10;4.90;99.90
2112;DHT22;1062;52.538;13.400;2022-12-05T18:58:36;4.80;99.90
2112;DHT22;1062;52.538;13.400;2022-12-05T19:01:07;4.80;99.90
2112;DHT22;1062;52.538;13.400;2022-12-05T19:03:34;4.80;99.90
2112;DHT22;1062;52.538;13.400;2022-12-05T19:06:00;4.70;99.90
2112;DHT22;1062;52.538;13.400;2022-12-05T19:08:26;4.80;99.90